UAL435 KSFO-KEWR
Flight info
| Callsign | UAL435 |
|---|---|
| Flight time | 4h 37m |
| Altitude | 33000 |
| Route | SNTNA2 SYRAH Q128 TABLL KU54Q DBL HCT OVR/N0479F350 DSM EVOTE NELLS KEEHO J584 SLT FQM3 |
| Aircraft | B77W/H-SDE1E2E3FGHIJ2J3J4J5M1RWXY/LB1D1 |
Departure
| Time | 2026-04-22 13:22 |
|---|---|
| Airport | San Francisco International Airport (KSFO) |
Arrival
| Time | 2026-04-22 18:00 |
|---|---|
| Airport | Newark Liberty International Airport (KEWR) |
| Time | Latitude | Longitude | Altitude | Speed | Heading |
|---|---|---|---|---|---|
| 2026-04-22 12:37 | 37.62117 | -122.38838 | 25 ft | 0 kts | 207° |
| 2026-04-22 13:10 | 37.62136 | -122.38826 | 31 ft | 4 kts | 202° |
| 2026-04-22 13:10 | 37.62161 | -122.38815 | 31 ft | 4 kts | 195° |
| 2026-04-22 13:10 | 37.62187 | -122.38808 | 30 ft | 4 kts | 184° |
| 2026-04-22 13:10 | 37.62213 | -122.38810 | 30 ft | 4 kts | 154° |
| 2026-04-22 13:11 | 37.62226 | -122.38822 | 31 ft | 0 kts | 118° |
| 2026-04-22 13:14 | 37.62226 | -122.38821 | 31 ft | 2 kts | 118° |
| 2026-04-22 13:14 | 37.62192 | -122.38741 | 31 ft | 16 kts | 118° |
| 2026-04-22 13:14 | 37.62133 | -122.38601 | 28 ft | 18 kts | 117° |
| 2026-04-22 13:15 | 37.62074 | -122.38458 | 31 ft | 18 kts | 118° |
| 2026-04-22 13:15 | 37.62014 | -122.38316 | 30 ft | 18 kts | 118° |
| 2026-04-22 13:15 | 37.61954 | -122.38174 | 28 ft | 18 kts | 118° |
| 2026-04-22 13:15 | 37.61894 | -122.38032 | 28 ft | 18 kts | 117° |
| 2026-04-22 13:16 | 37.61837 | -122.37888 | 30 ft | 18 kts | 114° |
| 2026-04-22 13:16 | 37.61790 | -122.37739 | 29 ft | 18 kts | 111° |
| 2026-04-22 13:16 | 37.61744 | -122.37588 | 28 ft | 18 kts | 111° |
| 2026-04-22 13:16 | 37.61690 | -122.37443 | 31 ft | 18 kts | 118° |
| 2026-04-22 13:17 | 37.61631 | -122.37300 | 28 ft | 18 kts | 118° |
| 2026-04-22 13:17 | 37.61571 | -122.37158 | 31 ft | 18 kts | 117° |
| 2026-04-22 13:17 | 37.61511 | -122.37016 | 29 ft | 18 kts | 118° |
| 2026-04-22 13:17 | 37.61440 | -122.36884 | 31 ft | 18 kts | 135° |
| 2026-04-22 13:18 | 37.61358 | -122.36761 | 27 ft | 18 kts | 120° |
| 2026-04-22 13:18 | 37.61298 | -122.36619 | 31 ft | 18 kts | 118° |
| 2026-04-22 13:18 | 37.61239 | -122.36479 | 29 ft | 16 kts | 118° |
| 2026-04-22 13:18 | 37.61203 | -122.36393 | 31 ft | 10 kts | 118° |
| 2026-04-22 13:19 | 37.61169 | -122.36313 | 29 ft | 10 kts | 118° |
| 2026-04-22 13:19 | 37.61135 | -122.36232 | 27 ft | 10 kts | 118° |
| 2026-04-22 13:19 | 37.61101 | -122.36152 | 30 ft | 10 kts | 117° |
| 2026-04-22 13:19 | 37.61067 | -122.36071 | 29 ft | 10 kts | 116° |
| 2026-04-22 13:20 | 37.61049 | -122.35985 | 28 ft | 10 kts | 84° |
| 2026-04-22 13:20 | 37.61089 | -122.35911 | 30 ft | 10 kts | 35° |
| 2026-04-22 13:20 | 37.61147 | -122.35870 | 29 ft | 7 kts | 28° |
| 2026-04-22 13:20 | 37.61181 | -122.35863 | 29 ft | 3 kts | 328° |
| 2026-04-22 13:21 | 37.61193 | -122.35892 | 28 ft | 4 kts | 298° |
| 2026-04-22 13:21 | 37.61243 | -122.36008 | 31 ft | 31 kts | 297° |
| 2026-04-22 13:21 | 37.61447 | -122.36494 | 27 ft | 102 kts | 298° |
| 2026-04-22 13:21 | 37.61892 | -122.37553 | 31 ft | 173 kts | 297° |
| 2026-04-22 13:22 | 37.62542 | -122.39100 | 110 ft | 216 kts | 298° |
| 2026-04-22 13:22 | 37.63221 | -122.40690 | 1050 ft | 197 kts | 295° |
| 2026-04-22 13:22 | 37.63863 | -122.42219 | 1831 ft | 201 kts | 293° |
| 2026-04-22 13:22 | 37.64558 | -122.43863 | 2066 ft | 225 kts | 294° |
| 2026-04-22 13:23 | 37.65343 | -122.45686 | 2475 ft | 241 kts | 295° |
| 2026-04-22 13:23 | 37.66166 | -122.47561 | 2993 ft | 248 kts | 295° |
| 2026-04-22 13:23 | 37.67000 | -122.49478 | 3692 ft | 251 kts | 295° |
| 2026-04-22 13:23 | 37.67953 | -122.51319 | 4421 ft | 256 kts | 313° |
| 2026-04-22 13:24 | 37.69551 | -122.52392 | 5081 ft | 270 kts | 346° |
| 2026-04-22 13:24 | 37.71416 | -122.52673 | 5691 ft | 271 kts | 342° |
| 2026-04-22 13:24 | 37.73156 | -122.53546 | 6260 ft | 269 kts | 329° |
| 2026-04-22 13:24 | 37.74844 | -122.54591 | 7012 ft | 271 kts | 329° |
| 2026-04-22 13:25 | 37.76562 | -122.55583 | 7684 ft | 273 kts | 336° |
| 2026-04-22 13:25 | 37.78491 | -122.55879 | 8235 ft | 290 kts | 4° |
| 2026-04-22 13:25 | 37.80393 | -122.54971 | 8852 ft | 301 kts | 36° |
| 2026-04-22 13:25 | 37.81701 | -122.52895 | 9451 ft | 308 kts | 69° |
| 2026-04-22 13:26 | 37.82012 | -122.50241 | 10035 ft | 306 kts | 98° |
| 2026-04-22 13:26 | 37.81856 | -122.47536 | 10336 ft | 317 kts | 84° |
| 2026-04-22 13:26 | 37.82578 | -122.44839 | 10465 ft | 333 kts | 61° |
| 2026-04-22 13:26 | 37.83748 | -122.42228 | 10606 ft | 348 kts | 55° |
| 2026-04-22 13:27 | 37.84968 | -122.39511 | 10714 ft | 366 kts | 70° |
| 2026-04-22 13:27 | 37.85584 | -122.36309 | 10891 ft | 385 kts | 82° |
| 2026-04-22 13:27 | 37.85884 | -122.32888 | 11346 ft | 397 kts | 85° |
| 2026-04-22 13:27 | 37.86090 | -122.29358 | 11882 ft | 407 kts | 86° |
| 2026-04-22 13:28 | 37.86264 | -122.25758 | 12577 ft | 414 kts | 86° |
| 2026-04-22 13:28 | 37.86432 | -122.22104 | 13353 ft | 418 kts | 85° |
| 2026-04-22 13:28 | 37.86731 | -122.18417 | 14095 ft | 424 kts | 82° |
| 2026-04-22 13:28 | 37.87137 | -122.14688 | 14685 ft | 432 kts | 80° |
| 2026-04-22 13:29 | 37.87596 | -122.10893 | 15274 ft | 439 kts | 79° |
| 2026-04-22 13:29 | 37.88074 | -122.07048 | 15852 ft | 447 kts | 79° |
| 2026-04-22 13:29 | 37.88556 | -122.03138 | 16487 ft | 452 kts | 78° |
| 2026-04-22 13:29 | 37.89038 | -121.99172 | 17097 ft | 459 kts | 78° |
| 2026-04-22 13:30 | 37.89519 | -121.95139 | 17701 ft | 467 kts | 78° |
| 2026-04-22 13:30 | 37.90003 | -121.91035 | 18294 ft | 475 kts | 78° |
| 2026-04-22 13:30 | 37.90490 | -121.86862 | 18828 ft | 482 kts | 78° |
| 2026-04-22 13:30 | 37.90978 | -121.82640 | 19394 ft | 487 kts | 78° |
| 2026-04-22 13:31 | 37.91461 | -121.78437 | 19988 ft | 492 kts | 78° |
| 2026-04-22 13:31 | 37.91961 | -121.74071 | 20492 ft | 498 kts | 78° |
| 2026-04-22 13:31 | 37.92454 | -121.69764 | 21012 ft | 503 kts | 78° |
| 2026-04-22 13:31 | 37.92957 | -121.65354 | 21547 ft | 508 kts | 78° |
| 2026-04-22 13:32 | 37.93465 | -121.60894 | 22092 ft | 513 kts | 78° |
| 2026-04-22 13:32 | 37.93975 | -121.56396 | 22600 ft | 519 kts | 78° |
| 2026-04-22 13:32 | 37.94489 | -121.51853 | 23148 ft | 524 kts | 78° |
| 2026-04-22 13:32 | 37.95006 | -121.47269 | 23614 ft | 529 kts | 78° |
| 2026-04-22 13:33 | 37.95527 | -121.42628 | 24025 ft | 535 kts | 78° |
| 2026-04-22 13:33 | 37.96051 | -121.37941 | 24440 ft | 539 kts | 78° |
| 2026-04-22 13:33 | 37.96577 | -121.33221 | 24845 ft | 543 kts | 79° |
| 2026-04-22 13:33 | 37.97104 | -121.28466 | 25216 ft | 547 kts | 79° |
| 2026-04-22 13:34 | 37.97634 | -121.23679 | 25666 ft | 550 kts | 79° |
| 2026-04-22 13:34 | 37.98165 | -121.18845 | 25968 ft | 557 kts | 79° |
| 2026-04-22 13:34 | 37.98702 | -121.13961 | 26296 ft | 562 kts | 79° |
| 2026-04-22 13:34 | 37.99249 | -121.09044 | 26686 ft | 565 kts | 78° |
| 2026-04-22 13:35 | 37.99911 | -121.04127 | 27074 ft | 567 kts | 76° |
| 2026-04-22 13:35 | 38.00670 | -120.99209 | 27451 ft | 570 kts | 75° |
| 2026-04-22 13:35 | 38.01477 | -120.94272 | 27811 ft | 574 kts | 75° |
| 2026-04-22 13:35 | 38.02302 | -120.89285 | 28050 ft | 581 kts | 75° |
| 2026-04-22 13:36 | 38.03122 | -120.84246 | 28355 ft | 585 kts | 75° |
| 2026-04-22 13:36 | 38.03927 | -120.79176 | 28718 ft | 588 kts | 76° |
| 2026-04-22 13:36 | 38.04718 | -120.74080 | 29073 ft | 590 kts | 76° |
| 2026-04-22 13:36 | 38.05500 | -120.68954 | 29390 ft | 593 kts | 76° |
| 2026-04-22 13:37 | 38.06279 | -120.63805 | 29747 ft | 595 kts | 76° |
| 2026-04-22 13:37 | 38.07055 | -120.58647 | 30162 ft | 595 kts | 76° |
| 2026-04-22 13:37 | 38.07829 | -120.53488 | 30553 ft | 595 kts | 76° |
| 2026-04-22 13:37 | 38.08603 | -120.48329 | 30979 ft | 593 kts | 77° |
| 2026-04-22 13:38 | 38.09372 | -120.43200 | 31432 ft | 590 kts | 77° |
| 2026-04-22 13:38 | 38.10896 | -120.33003 | 32234 ft | 587 kts | 77° |
| 2026-04-22 13:38 | 38.11658 | -120.27915 | 32582 ft | 586 kts | 77° |
| 2026-04-22 13:39 | 38.12414 | -120.22835 | 32956 ft | 585 kts | 77° |
| 2026-04-22 13:39 | 38.12910 | -120.19480 | 33205 ft | 584 kts | 77° |
| 2026-04-22 13:39 | 38.14407 | -120.09315 | 33185 ft | 584 kts | 77° |
| 2026-04-22 13:40 | 38.15883 | -119.99222 | 33178 ft | 580 kts | 78° |
| 2026-04-22 13:40 | 38.17351 | -119.89150 | 33175 ft | 579 kts | 78° |
| 2026-04-22 13:41 | 38.18811 | -119.79078 | 33171 ft | 579 kts | 78° |
| 2026-04-22 13:41 | 38.20262 | -119.68971 | 33168 ft | 582 kts | 78° |
| 2026-04-22 13:42 | 38.21713 | -119.58829 | 33143 ft | 584 kts | 78° |
| 2026-04-22 13:42 | 38.23156 | -119.48655 | 33144 ft | 584 kts | 78° |
| 2026-04-22 13:43 | 38.24595 | -119.38508 | 33120 ft | 581 kts | 78° |
| 2026-04-22 13:43 | 38.26002 | -119.28409 | 33093 ft | 579 kts | 78° |
| 2026-04-22 13:44 | 38.27391 | -119.18403 | 33111 ft | 577 kts | 78° |
| 2026-04-22 13:44 | 38.28783 | -119.08340 | 33084 ft | 578 kts | 78° |
| 2026-04-22 13:45 | 38.30170 | -118.98271 | 33085 ft | 578 kts | 78° |
| 2026-04-22 13:45 | 38.31553 | -118.88181 | 33081 ft | 580 kts | 79° |
| 2026-04-22 13:46 | 38.32924 | -118.78043 | 33076 ft | 582 kts | 79° |
| 2026-04-22 13:46 | 38.34292 | -118.67856 | 33084 ft | 585 kts | 79° |
| 2026-04-22 13:47 | 38.35664 | -118.57624 | 33068 ft | 586 kts | 79° |
| 2026-04-22 13:47 | 38.37021 | -118.47397 | 33088 ft | 586 kts | 79° |
| 2026-04-22 13:48 | 38.38369 | -118.37153 | 33063 ft | 586 kts | 79° |
| 2026-04-22 13:48 | 38.39710 | -118.26921 | 33008 ft | 585 kts | 79° |
| 2026-04-22 13:49 | 38.41040 | -118.16707 | 33037 ft | 584 kts | 80° |
| 2026-04-22 13:49 | 38.42352 | -118.06552 | 33054 ft | 585 kts | 80° |
| 2026-04-22 13:50 | 38.43666 | -117.96311 | 33047 ft | 586 kts | 80° |
| 2026-04-22 13:50 | 38.44971 | -117.86061 | 33033 ft | 585 kts | 80° |
| 2026-04-22 13:51 | 38.46265 | -117.75818 | 33039 ft | 585 kts | 80° |
| 2026-04-22 13:51 | 38.47551 | -117.65568 | 33035 ft | 584 kts | 80° |
| 2026-04-22 13:52 | 38.48826 | -117.55339 | 33033 ft | 584 kts | 80° |
| 2026-04-22 13:52 | 38.50092 | -117.45095 | 33065 ft | 584 kts | 80° |
| 2026-04-22 13:53 | 38.51348 | -117.34868 | 33041 ft | 582 kts | 81° |
| 2026-04-22 13:53 | 38.52411 | -117.24641 | 33035 ft | 580 kts | 86° |
| 2026-04-22 13:54 | 38.52928 | -117.14377 | 33038 ft | 579 kts | 87° |
| 2026-04-22 13:54 | 38.53390 | -117.04137 | 33036 ft | 577 kts | 87° |
| 2026-04-22 13:55 | 38.53876 | -116.93920 | 33030 ft | 575 kts | 86° |
| 2026-04-22 13:55 | 38.54381 | -116.83735 | 33028 ft | 575 kts | 87° |
| 2026-04-22 13:56 | 38.54883 | -116.73533 | 33024 ft | 576 kts | 87° |
| 2026-04-22 13:56 | 38.55368 | -116.63305 | 33015 ft | 577 kts | 87° |
| 2026-04-22 13:57 | 38.55852 | -116.53060 | 33021 ft | 578 kts | 87° |
| 2026-04-22 13:57 | 38.56325 | -116.42796 | 32997 ft | 579 kts | 88° |
| 2026-04-22 13:58 | 38.56786 | -116.32534 | 32992 ft | 578 kts | 88° |
| 2026-04-22 13:58 | 38.57240 | -116.22284 | 32997 ft | 577 kts | 88° |
| 2026-04-22 13:59 | 38.57680 | -116.12128 | 32958 ft | 576 kts | 88° |
| 2026-04-22 13:59 | 38.58112 | -116.01926 | 32960 ft | 574 kts | 88° |
| 2026-04-22 14:00 | 38.58535 | -115.91737 | 32965 ft | 574 kts | 88° |
| 2026-04-22 14:00 | 38.58950 | -115.81567 | 32875 ft | 573 kts | 89° |
| 2026-04-22 14:01 | 38.59355 | -115.71347 | 32951 ft | 580 kts | 89° |
| 2026-04-22 14:01 | 38.59756 | -115.61017 | 32955 ft | 581 kts | 89° |
| 2026-04-22 14:02 | 38.60149 | -115.50723 | 32929 ft | 578 kts | 89° |
| 2026-04-22 14:02 | 38.60532 | -115.40478 | 32924 ft | 576 kts | 89° |
| 2026-04-22 14:03 | 38.60902 | -115.30267 | 32913 ft | 573 kts | 89° |
| 2026-04-22 14:03 | 38.61262 | -115.20107 | 32909 ft | 571 kts | 90° |
| 2026-04-22 14:04 | 38.61610 | -115.10039 | 32918 ft | 570 kts | 90° |
| 2026-04-22 14:04 | 38.61951 | -114.99897 | 32919 ft | 572 kts | 90° |
| 2026-04-22 14:05 | 38.62287 | -114.89667 | 32908 ft | 572 kts | 90° |
| 2026-04-22 14:06 | 38.62769 | -114.74503 | 32889 ft | 572 kts | 90° |
| 2026-04-22 14:06 | 38.63082 | -114.64308 | 32922 ft | 575 kts | 90° |
| 2026-04-22 14:07 | 38.63386 | -114.54035 | 32920 ft | 580 kts | 90° |
| 2026-04-22 14:07 | 38.63685 | -114.43695 | 32897 ft | 583 kts | 90° |
| 2026-04-22 14:08 | 38.63970 | -114.33339 | 32896 ft | 582 kts | 90° |
| 2026-04-22 14:08 | 38.64259 | -114.23012 | 32887 ft | 580 kts | 90° |
| 2026-04-22 14:09 | 38.64532 | -114.12735 | 32861 ft | 577 kts | 91° |
| 2026-04-22 14:09 | 38.64789 | -114.02514 | 32870 ft | 573 kts | 91° |
| 2026-04-22 14:10 | 38.65039 | -113.92344 | 32849 ft | 571 kts | 91° |
| 2026-04-22 14:10 | 38.65277 | -113.82204 | 32881 ft | 569 kts | 91° |
| 2026-04-22 14:11 | 38.65507 | -113.72098 | 32872 ft | 568 kts | 91° |
| 2026-04-22 14:11 | 38.65728 | -113.61999 | 32834 ft | 569 kts | 91° |
| 2026-04-22 14:12 | 38.65941 | -113.51862 | 32854 ft | 572 kts | 91° |
| 2026-04-22 14:12 | 38.66148 | -113.41677 | 32878 ft | 574 kts | 91° |
| 2026-04-22 14:13 | 38.66346 | -113.31449 | 32887 ft | 576 kts | 91° |
| 2026-04-22 14:13 | 38.66537 | -113.21187 | 32924 ft | 577 kts | 91° |
| 2026-04-22 14:14 | 38.67244 | -113.11025 | 32864 ft | 578 kts | 82° |
| 2026-04-22 14:14 | 38.68501 | -113.00887 | 32867 ft | 575 kts | 82° |
| 2026-04-22 14:15 | 38.69755 | -112.90798 | 32868 ft | 573 kts | 82° |
| 2026-04-22 14:15 | 38.70947 | -112.80735 | 32870 ft | 571 kts | 83° |
| 2026-04-22 14:16 | 38.72101 | -112.70704 | 32875 ft | 568 kts | 83° |
| 2026-04-22 14:16 | 38.73240 | -112.60706 | 32878 ft | 566 kts | 83° |
| 2026-04-22 14:17 | 38.74371 | -112.50739 | 32882 ft | 565 kts | 83° |
| 2026-04-22 14:17 | 38.75495 | -112.40771 | 32973 ft | 564 kts | 84° |
| 2026-04-22 14:18 | 38.76612 | -112.30839 | 32996 ft | 562 kts | 84° |
| 2026-04-22 14:18 | 38.77708 | -112.20938 | 32963 ft | 560 kts | 84° |
| 2026-04-22 14:19 | 38.78797 | -112.11071 | 32905 ft | 557 kts | 84° |
| 2026-04-22 14:19 | 38.79871 | -112.01261 | 32890 ft | 555 kts | 84° |
| 2026-04-22 14:20 | 38.81459 | -111.86565 | 32856 ft | 555 kts | 84° |
| 2026-04-22 14:20 | 38.82507 | -111.76768 | 32824 ft | 554 kts | 84° |
| 2026-04-22 14:21 | 38.84067 | -111.62134 | 32848 ft | 551 kts | 84° |
| 2026-04-22 14:22 | 38.85595 | -111.47521 | 32843 ft | 551 kts | 84° |
| 2026-04-22 14:23 | 38.87108 | -111.32894 | 32824 ft | 551 kts | 84° |
| 2026-04-22 14:23 | 38.88106 | -111.23151 | 32825 ft | 551 kts | 84° |
| 2026-04-22 14:24 | 38.89097 | -111.13388 | 32816 ft | 552 kts | 84° |
| 2026-04-22 14:24 | 38.90089 | -111.03613 | 32800 ft | 552 kts | 85° |
| 2026-04-22 14:25 | 38.91056 | -110.93839 | 32802 ft | 552 kts | 85° |
| 2026-04-22 14:25 | 38.92023 | -110.84071 | 32802 ft | 551 kts | 85° |
| 2026-04-22 14:26 | 38.92983 | -110.74322 | 32802 ft | 549 kts | 85° |
| 2026-04-22 14:26 | 38.93924 | -110.64634 | 32783 ft | 544 kts | 86° |
| 2026-04-22 14:27 | 38.94851 | -110.55030 | 32791 ft | 541 kts | 86° |
| 2026-04-22 14:27 | 38.95766 | -110.45463 | 32763 ft | 538 kts | 86° |
| 2026-04-22 14:28 | 38.96662 | -110.36006 | 32797 ft | 536 kts | 86° |
| 2026-04-22 14:28 | 38.97554 | -110.26495 | 32795 ft | 536 kts | 86° |
| 2026-04-22 14:29 | 38.98439 | -110.16980 | 32798 ft | 537 kts | 86° |
| 2026-04-22 14:29 | 38.99178 | -110.08991 | 32815 ft | 537 kts | 87° |
| 2026-04-22 14:30 | 39.00066 | -109.99459 | 32823 ft | 538 kts | 85° |
| 2026-04-22 14:30 | 39.01406 | -109.89984 | 32847 ft | 539 kts | 82° |
| 2026-04-22 14:31 | 39.02944 | -109.80554 | 32860 ft | 539 kts | 82° |
| 2026-04-22 14:31 | 39.04453 | -109.71120 | 32840 ft | 537 kts | 82° |
| 2026-04-22 14:32 | 39.05891 | -109.61773 | 32805 ft | 535 kts | 83° |
| 2026-04-22 14:32 | 39.07310 | -109.52388 | 32798 ft | 534 kts | 83° |
| 2026-04-22 14:33 | 39.08721 | -109.43009 | 32795 ft | 533 kts | 83° |
| 2026-04-22 14:33 | 39.10122 | -109.33659 | 32796 ft | 531 kts | 83° |
| 2026-04-22 14:34 | 39.11511 | -109.24336 | 32785 ft | 529 kts | 83° |
| 2026-04-22 14:34 | 39.12889 | -109.15035 | 32790 ft | 528 kts | 83° |
| 2026-04-22 14:35 | 39.14258 | -109.05749 | 32788 ft | 527 kts | 83° |
| 2026-04-22 14:35 | 39.15617 | -108.96474 | 32791 ft | 526 kts | 83° |
| 2026-04-22 14:36 | 39.16965 | -108.87210 | 32782 ft | 526 kts | 83° |
| 2026-04-22 14:36 | 39.18308 | -108.77947 | 32799 ft | 526 kts | 83° |
| 2026-04-22 14:36 | 39.18976 | -108.73311 | 32923 ft | 526 kts | 84° |
| 2026-04-22 14:37 | 39.19642 | -108.68671 | 32939 ft | 527 kts | 84° |
| 2026-04-22 14:37 | 39.20971 | -108.59372 | 32964 ft | 528 kts | 84° |
| 2026-04-22 14:38 | 39.22297 | -108.50057 | 32968 ft | 529 kts | 84° |
| 2026-04-22 14:38 | 39.23617 | -108.40731 | 32895 ft | 527 kts | 84° |
| 2026-04-22 14:39 | 39.24918 | -108.31504 | 32877 ft | 519 kts | 84° |
| 2026-04-22 14:39 | 39.26200 | -108.22334 | 32846 ft | 520 kts | 84° |
| 2026-04-22 14:40 | 39.28099 | -108.08599 | 32815 ft | 522 kts | 84° |
| 2026-04-22 14:40 | 39.29373 | -107.99355 | 32805 ft | 524 kts | 84° |
| 2026-04-22 14:41 | 39.30637 | -107.90094 | 32806 ft | 524 kts | 84° |
| 2026-04-22 14:41 | 39.31897 | -107.80831 | 32813 ft | 524 kts | 84° |
| 2026-04-22 14:42 | 39.33149 | -107.71580 | 32793 ft | 520 kts | 85° |
| 2026-04-22 14:42 | 39.34375 | -107.62491 | 32818 ft | 509 kts | 85° |
| 2026-04-22 14:43 | 39.35578 | -107.53457 | 32820 ft | 511 kts | 85° |
| 2026-04-22 14:43 | 39.36778 | -107.44391 | 32807 ft | 512 kts | 85° |
| 2026-04-22 14:44 | 39.37973 | -107.35320 | 32836 ft | 511 kts | 86° |
| 2026-04-22 14:44 | 39.39157 | -107.26291 | 32804 ft | 509 kts | 86° |
| 2026-04-22 14:45 | 39.40328 | -107.17299 | 32848 ft | 506 kts | 86° |
| 2026-04-22 14:45 | 39.41488 | -107.08334 | 32905 ft | 505 kts | 86° |
| 2026-04-22 14:46 | 39.42638 | -106.99390 | 32918 ft | 503 kts | 86° |
| 2026-04-22 14:46 | 39.43778 | -106.90490 | 32970 ft | 501 kts | 85° |
| 2026-04-22 14:47 | 39.44504 | -106.86056 | 32793 ft | 505 kts | 82° |
| 2026-04-22 14:47 | 39.45350 | -106.81721 | 32839 ft | 504 kts | 81° |
| 2026-04-22 14:47 | 39.47127 | -106.72953 | 32838 ft | 504 kts | 81° |
| 2026-04-22 14:48 | 39.48887 | -106.64189 | 32846 ft | 501 kts | 81° |
| 2026-04-22 14:48 | 39.50607 | -106.55448 | 32841 ft | 500 kts | 81° |
| 2026-04-22 14:49 | 39.52303 | -106.46727 | 32852 ft | 499 kts | 81° |
| 2026-04-22 14:49 | 39.53993 | -106.37999 | 32851 ft | 499 kts | 81° |
| 2026-04-22 14:50 | 39.55678 | -106.29263 | 32848 ft | 501 kts | 81° |
| 2026-04-22 14:50 | 39.57366 | -106.20468 | 32853 ft | 504 kts | 81° |
| 2026-04-22 14:51 | 39.59059 | -106.11614 | 32843 ft | 507 kts | 82° |
| 2026-04-22 14:51 | 39.60751 | -106.02731 | 32845 ft | 508 kts | 82° |
| 2026-04-22 14:52 | 39.62438 | -105.93835 | 32843 ft | 509 kts | 81° |
| 2026-04-22 14:52 | 39.64125 | -105.84903 | 32833 ft | 510 kts | 81° |
| 2026-04-22 14:53 | 39.65808 | -105.75963 | 32840 ft | 510 kts | 81° |
| 2026-04-22 14:53 | 39.67481 | -105.67010 | 32818 ft | 511 kts | 81° |
| 2026-04-22 14:54 | 39.69149 | -105.58042 | 32795 ft | 511 kts | 81° |
| 2026-04-22 14:54 | 39.70811 | -105.49082 | 32762 ft | 510 kts | 81° |
| 2026-04-22 14:55 | 39.72463 | -105.40132 | 32812 ft | 509 kts | 81° |
| 2026-04-22 14:55 | 39.74103 | -105.31187 | 32840 ft | 509 kts | 81° |
| 2026-04-22 14:56 | 39.75738 | -105.22233 | 32878 ft | 510 kts | 81° |
| 2026-04-22 14:56 | 39.77365 | -105.13300 | 32900 ft | 512 kts | 81° |
| 2026-04-22 14:57 | 39.79010 | -105.04219 | 32911 ft | 514 kts | 81° |
| 2026-04-22 14:57 | 39.80631 | -104.95218 | 32859 ft | 515 kts | 81° |
| 2026-04-22 14:58 | 39.82258 | -104.86145 | 32868 ft | 515 kts | 80° |
| 2026-04-22 14:58 | 39.83877 | -104.77081 | 32906 ft | 513 kts | 81° |
| 2026-04-22 14:59 | 39.85481 | -104.68047 | 32902 ft | 512 kts | 81° |
| 2026-04-22 14:59 | 39.87075 | -104.59033 | 32908 ft | 511 kts | 81° |
| 2026-04-22 15:00 | 39.88658 | -104.50028 | 32919 ft | 510 kts | 81° |
| 2026-04-22 15:00 | 39.90233 | -104.41028 | 32870 ft | 510 kts | 81° |
| 2026-04-22 15:01 | 39.91802 | -104.32021 | 32820 ft | 510 kts | 81° |
| 2026-04-22 15:01 | 39.93365 | -104.23005 | 32765 ft | 510 kts | 81° |
| 2026-04-22 15:02 | 39.94919 | -104.13989 | 32707 ft | 509 kts | 81° |
| 2026-04-22 15:02 | 39.96465 | -104.04987 | 32703 ft | 509 kts | 81° |
| 2026-04-22 15:03 | 39.98003 | -103.95984 | 32703 ft | 508 kts | 81° |
| 2026-04-22 15:03 | 39.99530 | -103.86993 | 32709 ft | 508 kts | 81° |
| 2026-04-22 15:04 | 40.01048 | -103.78010 | 32705 ft | 507 kts | 80° |
| 2026-04-22 15:04 | 40.02558 | -103.69040 | 32712 ft | 506 kts | 80° |
| 2026-04-22 15:05 | 40.04059 | -103.60074 | 32722 ft | 506 kts | 80° |
| 2026-04-22 15:05 | 40.05552 | -103.51106 | 32724 ft | 506 kts | 80° |
| 2026-04-22 15:06 | 40.07038 | -103.42134 | 32733 ft | 506 kts | 80° |
| 2026-04-22 15:06 | 40.08519 | -103.33150 | 32861 ft | 506 kts | 80° |
| 2026-04-22 15:07 | 40.09992 | -103.24170 | 32880 ft | 506 kts | 80° |
| 2026-04-22 15:07 | 40.11458 | -103.15187 | 32882 ft | 506 kts | 80° |
| 2026-04-22 15:08 | 40.12188 | -103.10693 | 32723 ft | 506 kts | 80° |
| 2026-04-22 15:08 | 40.12916 | -103.06202 | 32744 ft | 505 kts | 80° |
| 2026-04-22 15:08 | 40.14357 | -102.97278 | 32729 ft | 505 kts | 80° |
| 2026-04-22 15:09 | 40.15801 | -102.88293 | 32731 ft | 505 kts | 80° |
| 2026-04-22 15:09 | 40.17238 | -102.79298 | 32729 ft | 505 kts | 80° |
| 2026-04-22 15:10 | 40.18666 | -102.70313 | 32743 ft | 504 kts | 80° |
| 2026-04-22 15:10 | 40.20087 | -102.61333 | 32746 ft | 504 kts | 80° |
| 2026-04-22 15:11 | 40.21498 | -102.52357 | 32744 ft | 504 kts | 80° |
| 2026-04-22 15:11 | 40.22902 | -102.43384 | 32740 ft | 503 kts | 80° |
| 2026-04-22 15:12 | 40.24298 | -102.34410 | 32742 ft | 503 kts | 80° |
| 2026-04-22 15:12 | 40.25686 | -102.25441 | 32756 ft | 503 kts | 80° |
| 2026-04-22 15:13 | 40.27069 | -102.16461 | 32761 ft | 503 kts | 80° |
| 2026-04-22 15:13 | 40.28443 | -102.07484 | 32755 ft | 503 kts | 80° |
| 2026-04-22 15:14 | 40.29811 | -101.98502 | 32761 ft | 503 kts | 80° |
| 2026-04-22 15:14 | 40.31171 | -101.89520 | 32790 ft | 503 kts | 80° |
| 2026-04-22 15:15 | 40.32524 | -101.80536 | 32805 ft | 503 kts | 80° |
| 2026-04-22 15:15 | 40.33870 | -101.71546 | 32824 ft | 503 kts | 81° |
| 2026-04-22 15:16 | 40.35211 | -101.62542 | 32821 ft | 503 kts | 81° |
| 2026-04-22 15:16 | 40.36534 | -101.53609 | 32830 ft | 502 kts | 81° |
| 2026-04-22 15:17 | 40.37859 | -101.44614 | 32826 ft | 502 kts | 81° |
| 2026-04-22 15:17 | 40.39176 | -101.35618 | 32814 ft | 502 kts | 81° |
| 2026-04-22 15:18 | 40.40486 | -101.26622 | 32800 ft | 502 kts | 81° |
| 2026-04-22 15:18 | 40.41789 | -101.17623 | 32790 ft | 502 kts | 81° |
| 2026-04-22 15:19 | 40.42875 | -101.10074 | 32793 ft | 502 kts | 81° |
| 2026-04-22 15:19 | 40.44158 | -101.01124 | 32798 ft | 502 kts | 81° |
| 2026-04-22 15:20 | 40.45443 | -100.92112 | 32799 ft | 502 kts | 81° |
| 2026-04-22 15:20 | 40.46835 | -100.83119 | 32816 ft | 503 kts | 79° |
| 2026-04-22 15:21 | 40.48304 | -100.74143 | 32825 ft | 503 kts | 79° |
| 2026-04-22 15:21 | 40.49761 | -100.65164 | 32834 ft | 503 kts | 80° |
| 2026-04-22 15:22 | 40.51193 | -100.56170 | 32819 ft | 502 kts | 80° |
| 2026-04-22 15:22 | 40.52610 | -100.47183 | 32828 ft | 502 kts | 80° |
| 2026-04-22 15:23 | 40.54018 | -100.38191 | 32831 ft | 502 kts | 80° |
| 2026-04-22 15:23 | 40.55422 | -100.29185 | 32846 ft | 503 kts | 80° |
| 2026-04-22 15:24 | 40.56820 | -100.20176 | 32844 ft | 503 kts | 81° |
| 2026-04-22 15:24 | 40.58211 | -100.11158 | 32851 ft | 503 kts | 81° |
| 2026-04-22 15:25 | 40.59595 | -100.02142 | 32851 ft | 503 kts | 81° |
| 2026-04-22 15:25 | 40.60972 | -99.93122 | 32851 ft | 503 kts | 81° |
| 2026-04-22 15:26 | 40.62341 | -99.84099 | 32846 ft | 503 kts | 81° |
| 2026-04-22 15:26 | 40.63703 | -99.75075 | 32852 ft | 503 kts | 81° |
| 2026-04-22 15:27 | 40.65058 | -99.66049 | 32856 ft | 503 kts | 81° |
| 2026-04-22 15:27 | 40.66407 | -99.57010 | 32856 ft | 503 kts | 81° |
| 2026-04-22 15:28 | 40.67748 | -99.47975 | 32862 ft | 503 kts | 81° |
| 2026-04-22 15:28 | 40.69083 | -99.38932 | 32856 ft | 503 kts | 81° |
| 2026-04-22 15:29 | 40.70411 | -99.29881 | 32898 ft | 503 kts | 81° |
| 2026-04-22 15:30 | 40.72392 | -99.16284 | 32920 ft | 504 kts | 81° |
| 2026-04-22 15:30 | 40.73705 | -99.07209 | 32917 ft | 504 kts | 81° |
| 2026-04-22 15:31 | 40.75003 | -98.98183 | 32927 ft | 505 kts | 81° |
| 2026-04-22 15:31 | 40.76305 | -98.89079 | 32926 ft | 505 kts | 81° |
| 2026-04-22 15:32 | 40.77599 | -98.79972 | 32914 ft | 505 kts | 81° |
| 2026-04-22 15:32 | 40.78887 | -98.70858 | 32884 ft | 505 kts | 81° |
| 2026-04-22 15:33 | 40.80168 | -98.61732 | 32899 ft | 506 kts | 81° |
| 2026-04-22 15:33 | 40.81444 | -98.52591 | 32904 ft | 507 kts | 81° |
| 2026-04-22 15:34 | 40.82715 | -98.43433 | 32942 ft | 508 kts | 81° |
| 2026-04-22 15:34 | 40.83981 | -98.34253 | 32934 ft | 508 kts | 81° |
| 2026-04-22 15:35 | 40.85240 | -98.25074 | 32938 ft | 508 kts | 81° |
| 2026-04-22 15:35 | 40.86491 | -98.15889 | 32958 ft | 508 kts | 81° |
| 2026-04-22 15:36 | 40.87736 | -98.06693 | 32968 ft | 509 kts | 81° |
| 2026-04-22 15:36 | 40.88358 | -98.02073 | 33105 ft | 512 kts | 81° |
| 2026-04-22 15:36 | 40.88980 | -97.97440 | 33429 ft | 512 kts | 81° |
| 2026-04-22 15:36 | 40.89599 | -97.92818 | 33828 ft | 510 kts | 81° |
| 2026-04-22 15:37 | 40.90214 | -97.88210 | 34184 ft | 508 kts | 81° |
| 2026-04-22 15:37 | 40.90826 | -97.83618 | 34513 ft | 507 kts | 81° |
| 2026-04-22 15:37 | 40.91434 | -97.79038 | 34823 ft | 506 kts | 81° |
| 2026-04-22 15:38 | 40.92646 | -97.69846 | 34962 ft | 508 kts | 81° |
| 2026-04-22 15:38 | 40.94449 | -97.56084 | 34962 ft | 504 kts | 81° |
| 2026-04-22 15:39 | 40.95626 | -97.47022 | 34938 ft | 503 kts | 81° |
| 2026-04-22 15:39 | 40.96802 | -97.37913 | 34941 ft | 502 kts | 81° |
| 2026-04-22 15:40 | 40.97979 | -97.28726 | 34942 ft | 503 kts | 81° |
| 2026-04-22 15:40 | 40.99143 | -97.19591 | 34945 ft | 504 kts | 81° |
| 2026-04-22 15:41 | 41.00304 | -97.10422 | 34957 ft | 506 kts | 81° |
| 2026-04-22 15:41 | 41.01461 | -97.01220 | 34963 ft | 507 kts | 81° |
| 2026-04-22 15:42 | 41.02603 | -96.92071 | 34972 ft | 507 kts | 81° |
| 2026-04-22 15:42 | 41.03747 | -96.82851 | 34973 ft | 507 kts | 81° |
| 2026-04-22 15:43 | 41.04883 | -96.73628 | 34976 ft | 507 kts | 81° |
| 2026-04-22 15:43 | 41.06012 | -96.64408 | 34972 ft | 507 kts | 81° |
| 2026-04-22 15:44 | 41.07132 | -96.55194 | 34952 ft | 506 kts | 81° |
| 2026-04-22 15:44 | 41.08243 | -96.45984 | 34971 ft | 506 kts | 81° |
| 2026-04-22 15:45 | 41.09347 | -96.36772 | 34981 ft | 505 kts | 81° |
| 2026-04-22 15:45 | 41.10442 | -96.27570 | 34991 ft | 505 kts | 81° |
| 2026-04-22 15:46 | 41.11529 | -96.18374 | 34999 ft | 505 kts | 81° |
| 2026-04-22 15:46 | 41.12609 | -96.09170 | 35001 ft | 505 kts | 81° |
| 2026-04-22 15:47 | 41.13682 | -95.99963 | 34989 ft | 505 kts | 81° |
| 2026-04-22 15:47 | 41.14748 | -95.90750 | 34993 ft | 505 kts | 81° |
| 2026-04-22 15:48 | 41.15807 | -95.81535 | 34990 ft | 505 kts | 81° |
| 2026-04-22 15:48 | 41.16856 | -95.72368 | 34990 ft | 505 kts | 81° |
| 2026-04-22 15:49 | 41.18080 | -95.63185 | 34992 ft | 505 kts | 78° |
| 2026-04-22 15:49 | 41.19393 | -95.54024 | 34993 ft | 505 kts | 78° |
| 2026-04-22 15:50 | 41.20682 | -95.44857 | 35000 ft | 505 kts | 79° |
| 2026-04-22 15:50 | 41.21938 | -95.35683 | 35004 ft | 505 kts | 79° |
| 2026-04-22 15:51 | 41.23179 | -95.26503 | 35010 ft | 505 kts | 79° |
| 2026-04-22 15:51 | 41.24414 | -95.17313 | 35000 ft | 505 kts | 79° |
| 2026-04-22 15:52 | 41.25643 | -95.08116 | 35007 ft | 505 kts | 79° |
| 2026-04-22 15:52 | 41.26867 | -94.98910 | 35007 ft | 505 kts | 79° |
| 2026-04-22 15:53 | 41.28083 | -94.89708 | 35012 ft | 505 kts | 78° |
| 2026-04-22 15:53 | 41.29290 | -94.80508 | 35000 ft | 505 kts | 78° |
| 2026-04-22 15:54 | 41.30489 | -94.71307 | 35005 ft | 505 kts | 78° |
| 2026-04-22 15:54 | 41.31681 | -94.62111 | 34998 ft | 504 kts | 79° |
| 2026-04-22 15:55 | 41.32864 | -94.52918 | 35013 ft | 504 kts | 78° |
| 2026-04-22 15:55 | 41.34040 | -94.43725 | 35004 ft | 504 kts | 78° |
| 2026-04-22 15:56 | 41.35206 | -94.34537 | 35002 ft | 503 kts | 78° |
| 2026-04-22 15:56 | 41.36365 | -94.25355 | 34998 ft | 503 kts | 78° |
| 2026-04-22 15:57 | 41.37516 | -94.16167 | 35006 ft | 503 kts | 78° |
| 2026-04-22 15:57 | 41.38651 | -94.07050 | 35011 ft | 502 kts | 78° |
| 2026-04-22 15:58 | 41.39786 | -93.97871 | 35000 ft | 502 kts | 78° |
| 2026-04-22 15:58 | 41.40913 | -93.88691 | 35015 ft | 502 kts | 78° |
| 2026-04-22 15:59 | 41.42034 | -93.79510 | 35023 ft | 502 kts | 78° |
| 2026-04-22 15:59 | 41.43147 | -93.70329 | 35010 ft | 502 kts | 78° |
| 2026-04-22 16:00 | 41.44225 | -93.61138 | 35011 ft | 502 kts | 79° |
| 2026-04-22 16:00 | 41.45130 | -93.51895 | 35021 ft | 502 kts | 80° |
| 2026-04-22 16:01 | 41.45982 | -93.42652 | 35026 ft | 503 kts | 80° |
| 2026-04-22 16:01 | 41.46846 | -93.33407 | 35027 ft | 503 kts | 80° |
| 2026-04-22 16:02 | 41.47720 | -93.24165 | 35041 ft | 502 kts | 80° |
| 2026-04-22 16:02 | 41.48592 | -93.14923 | 35033 ft | 502 kts | 80° |
| 2026-04-22 16:03 | 41.49457 | -93.05676 | 35042 ft | 503 kts | 80° |
| 2026-04-22 16:03 | 41.50312 | -92.96425 | 35048 ft | 502 kts | 80° |
| 2026-04-22 16:04 | 41.51154 | -92.87228 | 35033 ft | 502 kts | 80° |
| 2026-04-22 16:04 | 41.51994 | -92.77978 | 35051 ft | 502 kts | 80° |
| 2026-04-22 16:05 | 41.52826 | -92.68732 | 35051 ft | 502 kts | 80° |
| 2026-04-22 16:05 | 41.53657 | -92.59426 | 35049 ft | 502 kts | 80° |
| 2026-04-22 16:06 | 41.54468 | -92.50237 | 35037 ft | 502 kts | 80° |
| 2026-04-22 16:06 | 41.55277 | -92.40984 | 35026 ft | 502 kts | 80° |
| 2026-04-22 16:07 | 41.56080 | -92.31728 | 35012 ft | 502 kts | 80° |
| 2026-04-22 16:07 | 41.56875 | -92.22461 | 35019 ft | 502 kts | 80° |
| 2026-04-22 16:08 | 41.57530 | -92.14768 | 35009 ft | 502 kts | 80° |
| 2026-04-22 16:08 | 41.58311 | -92.05508 | 35009 ft | 502 kts | 80° |
| 2026-04-22 16:09 | 41.59084 | -91.96248 | 35009 ft | 501 kts | 80° |
| 2026-04-22 16:09 | 41.59850 | -91.86992 | 35035 ft | 501 kts | 80° |
| 2026-04-22 16:10 | 41.60609 | -91.77738 | 35031 ft | 501 kts | 80° |
| 2026-04-22 16:10 | 41.61357 | -91.68491 | 35042 ft | 500 kts | 80° |
| 2026-04-22 16:11 | 41.62097 | -91.59263 | 35047 ft | 499 kts | 81° |
| 2026-04-22 16:11 | 41.62830 | -91.50041 | 35056 ft | 499 kts | 80° |
| 2026-04-22 16:12 | 41.63556 | -91.40814 | 35045 ft | 499 kts | 80° |
| 2026-04-22 16:12 | 41.64273 | -91.31597 | 35037 ft | 498 kts | 81° |
| 2026-04-22 16:13 | 41.64982 | -91.22380 | 35028 ft | 498 kts | 81° |
| 2026-04-22 16:13 | 41.65684 | -91.13162 | 35033 ft | 498 kts | 81° |
| 2026-04-22 16:14 | 41.66379 | -91.03939 | 35007 ft | 499 kts | 81° |
| 2026-04-22 16:14 | 41.67068 | -90.94711 | 35009 ft | 499 kts | 81° |
| 2026-04-22 16:15 | 41.67748 | -90.85478 | 35026 ft | 499 kts | 81° |
| 2026-04-22 16:15 | 41.68422 | -90.76229 | 35037 ft | 499 kts | 81° |
| 2026-04-22 16:16 | 41.69089 | -90.66982 | 35041 ft | 500 kts | 81° |
| 2026-04-22 16:16 | 41.69744 | -90.57789 | 35034 ft | 500 kts | 81° |
| 2026-04-22 16:17 | 41.70396 | -90.48531 | 35030 ft | 500 kts | 81° |
| 2026-04-22 16:17 | 41.71042 | -90.39268 | 35032 ft | 500 kts | 81° |
| 2026-04-22 16:18 | 41.71679 | -90.29999 | 35038 ft | 500 kts | 81° |
| 2026-04-22 16:18 | 41.72310 | -90.20732 | 35030 ft | 500 kts | 81° |
| 2026-04-22 16:19 | 41.72932 | -90.11466 | 35030 ft | 500 kts | 81° |
| 2026-04-22 16:19 | 41.73547 | -90.02200 | 35023 ft | 500 kts | 81° |
| 2026-04-22 16:20 | 41.74155 | -89.92931 | 35034 ft | 500 kts | 81° |
| 2026-04-22 16:20 | 41.74755 | -89.83656 | 35035 ft | 499 kts | 81° |
| 2026-04-22 16:21 | 41.75347 | -89.74399 | 35036 ft | 499 kts | 81° |
| 2026-04-22 16:21 | 41.75930 | -89.65152 | 35036 ft | 498 kts | 81° |
| 2026-04-22 16:22 | 41.76792 | -89.51281 | 35033 ft | 498 kts | 81° |
| 2026-04-22 16:23 | 41.77633 | -89.37459 | 35029 ft | 499 kts | 81° |
| 2026-04-22 16:23 | 41.78188 | -89.28198 | 35036 ft | 499 kts | 81° |
| 2026-04-22 16:24 | 41.79006 | -89.14295 | 35046 ft | 499 kts | 81° |
| 2026-04-22 16:25 | 41.79542 | -89.05033 | 35020 ft | 499 kts | 81° |
| 2026-04-22 16:25 | 41.80331 | -88.91138 | 35028 ft | 498 kts | 81° |
| 2026-04-22 16:26 | 41.80847 | -88.81891 | 35056 ft | 498 kts | 82° |
| 2026-04-22 16:26 | 41.81355 | -88.72644 | 35044 ft | 497 kts | 82° |
| 2026-04-22 16:27 | 41.81856 | -88.63408 | 35039 ft | 497 kts | 82° |
| 2026-04-22 16:27 | 41.82348 | -88.54174 | 35038 ft | 496 kts | 82° |
| 2026-04-22 16:28 | 41.82833 | -88.44953 | 35052 ft | 496 kts | 82° |
| 2026-04-22 16:28 | 41.83310 | -88.35738 | 35037 ft | 495 kts | 82° |
| 2026-04-22 16:29 | 41.83780 | -88.26522 | 35035 ft | 495 kts | 82° |
| 2026-04-22 16:29 | 41.84241 | -88.17322 | 35038 ft | 495 kts | 82° |
| 2026-04-22 16:30 | 41.84695 | -88.08117 | 35041 ft | 495 kts | 82° |
| 2026-04-22 16:30 | 41.85142 | -87.98914 | 35029 ft | 495 kts | 82° |
| 2026-04-22 16:31 | 41.85581 | -87.89712 | 35032 ft | 494 kts | 82° |
| 2026-04-22 16:31 | 41.86013 | -87.80509 | 35035 ft | 494 kts | 82° |
| 2026-04-22 16:32 | 41.86437 | -87.71304 | 35035 ft | 494 kts | 82° |
| 2026-04-22 16:32 | 41.86855 | -87.62096 | 35047 ft | 495 kts | 82° |
| 2026-04-22 16:33 | 41.87265 | -87.52874 | 35033 ft | 495 kts | 82° |
| 2026-04-22 16:33 | 41.87668 | -87.43659 | 35040 ft | 495 kts | 82° |
| 2026-04-22 16:34 | 41.88063 | -87.34445 | 35043 ft | 495 kts | 82° |
| 2026-04-22 16:34 | 41.88451 | -87.25232 | 35054 ft | 495 kts | 82° |
| 2026-04-22 16:35 | 41.88832 | -87.16008 | 35054 ft | 495 kts | 82° |
| 2026-04-22 16:35 | 41.89203 | -87.06842 | 35059 ft | 495 kts | 82° |
| 2026-04-22 16:36 | 41.89568 | -86.97619 | 35061 ft | 495 kts | 82° |
| 2026-04-22 16:36 | 41.89927 | -86.88392 | 35062 ft | 495 kts | 82° |
| 2026-04-22 16:37 | 41.90279 | -86.79155 | 35058 ft | 496 kts | 82° |
| 2026-04-22 16:37 | 41.90624 | -86.69905 | 35056 ft | 496 kts | 82° |
| 2026-04-22 16:38 | 41.90961 | -86.60659 | 35050 ft | 496 kts | 82° |
| 2026-04-22 16:38 | 41.91291 | -86.51406 | 35055 ft | 497 kts | 82° |
| 2026-04-22 16:39 | 41.91614 | -86.42139 | 35046 ft | 497 kts | 82° |
| 2026-04-22 16:39 | 41.91929 | -86.32865 | 35041 ft | 497 kts | 82° |
| 2026-04-22 16:40 | 41.92238 | -86.23587 | 35032 ft | 497 kts | 82° |
| 2026-04-22 16:41 | 41.92687 | -86.09653 | 35028 ft | 499 kts | 83° |
| 2026-04-22 16:41 | 41.92979 | -86.00306 | 35028 ft | 502 kts | 83° |
| 2026-04-22 16:42 | 41.93265 | -85.90925 | 35024 ft | 503 kts | 83° |
| 2026-04-22 16:42 | 41.93542 | -85.81521 | 35025 ft | 504 kts | 83° |
| 2026-04-22 16:43 | 41.93811 | -85.72171 | 35024 ft | 504 kts | 83° |
| 2026-04-22 16:43 | 41.94073 | -85.62759 | 35030 ft | 504 kts | 83° |
| 2026-04-22 16:44 | 41.94328 | -85.53353 | 35028 ft | 504 kts | 83° |
| 2026-04-22 16:44 | 41.94575 | -85.43960 | 35021 ft | 503 kts | 83° |
| 2026-04-22 16:45 | 41.94815 | -85.34574 | 35045 ft | 503 kts | 83° |
| 2026-04-22 16:45 | 41.95048 | -85.25186 | 35029 ft | 503 kts | 83° |
| 2026-04-22 16:46 | 41.95173 | -85.15783 | 35039 ft | 504 kts | 85° |
| 2026-04-22 16:46 | 41.95110 | -85.06358 | 35023 ft | 505 kts | 85° |
| 2026-04-22 16:47 | 41.95033 | -84.96921 | 35034 ft | 505 kts | 85° |
| 2026-04-22 16:47 | 41.94987 | -84.89084 | 35025 ft | 505 kts | 85° |
| 2026-04-22 16:48 | 41.94931 | -84.78045 | 35035 ft | 505 kts | 85° |
| 2026-04-22 16:48 | 41.94877 | -84.68610 | 35036 ft | 505 kts | 85° |
| 2026-04-22 16:49 | 41.94813 | -84.59167 | 35050 ft | 506 kts | 85° |
| 2026-04-22 16:49 | 41.94741 | -84.49711 | 35038 ft | 506 kts | 85° |
| 2026-04-22 16:50 | 41.94661 | -84.40261 | 35034 ft | 506 kts | 85° |
| 2026-04-22 16:50 | 41.94573 | -84.30817 | 35046 ft | 506 kts | 85° |
| 2026-04-22 16:51 | 41.94478 | -84.21366 | 35054 ft | 506 kts | 85° |
| 2026-04-22 16:51 | 41.94374 | -84.11910 | 35056 ft | 506 kts | 85° |
| 2026-04-22 16:52 | 41.94262 | -84.02455 | 35056 ft | 506 kts | 85° |
| 2026-04-22 16:52 | 41.94164 | -83.94597 | 35051 ft | 506 kts | 85° |
| 2026-04-22 16:53 | 41.94019 | -83.83597 | 35050 ft | 507 kts | 85° |
| 2026-04-22 16:53 | 41.93884 | -83.74129 | 35033 ft | 507 kts | 85° |
| 2026-04-22 16:54 | 41.93742 | -83.64658 | 35034 ft | 507 kts | 85° |
| 2026-04-22 16:54 | 41.93593 | -83.55188 | 35038 ft | 507 kts | 85° |
| 2026-04-22 16:55 | 41.93454 | -83.45714 | 35045 ft | 507 kts | 84° |
| 2026-04-22 16:55 | 41.93416 | -83.36249 | 35044 ft | 507 kts | 84° |
| 2026-04-22 16:56 | 41.93398 | -83.26790 | 35043 ft | 506 kts | 84° |
| 2026-04-22 16:56 | 41.93358 | -83.17331 | 35046 ft | 506 kts | 84° |
| 2026-04-22 16:57 | 41.93301 | -83.07873 | 35052 ft | 507 kts | 84° |
| 2026-04-22 16:57 | 41.93245 | -83.00004 | 35047 ft | 507 kts | 84° |
| 2026-04-22 16:58 | 41.93171 | -82.90552 | 35046 ft | 506 kts | 84° |
| 2026-04-22 16:58 | 41.93090 | -82.81090 | 35054 ft | 506 kts | 84° |
| 2026-04-22 16:59 | 41.93002 | -82.71643 | 35065 ft | 506 kts | 84° |
| 2026-04-22 16:59 | 41.92906 | -82.62190 | 35057 ft | 506 kts | 84° |
| 2026-04-22 17:00 | 41.92802 | -82.52738 | 35056 ft | 506 kts | 85° |
| 2026-04-22 17:00 | 41.92632 | -82.38569 | 35088 ft | 506 kts | 84° |
| 2026-04-22 17:01 | 41.92509 | -82.29120 | 35053 ft | 506 kts | 84° |
| 2026-04-22 17:01 | 41.92379 | -82.19737 | 35052 ft | 506 kts | 85° |
| 2026-04-22 17:02 | 41.92241 | -82.10297 | 35065 ft | 506 kts | 85° |
| 2026-04-22 17:02 | 41.92095 | -82.00860 | 35069 ft | 506 kts | 85° |
| 2026-04-22 17:03 | 41.91942 | -81.91411 | 35068 ft | 507 kts | 85° |
| 2026-04-22 17:03 | 41.91738 | -81.81947 | 35065 ft | 510 kts | 88° |
| 2026-04-22 17:04 | 41.90940 | -81.72453 | 35067 ft | 513 kts | 91° |
| 2026-04-22 17:04 | 41.90039 | -81.62945 | 35089 ft | 513 kts | 91° |
| 2026-04-22 17:05 | 41.89158 | -81.53433 | 35074 ft | 514 kts | 91° |
| 2026-04-22 17:05 | 41.88294 | -81.43919 | 35069 ft | 514 kts | 91° |
| 2026-04-22 17:06 | 41.87428 | -81.34407 | 35062 ft | 513 kts | 91° |
| 2026-04-22 17:06 | 41.86552 | -81.24904 | 35083 ft | 513 kts | 91° |
| 2026-04-22 17:07 | 41.85667 | -81.15404 | 35054 ft | 513 kts | 91° |
| 2026-04-22 17:07 | 41.84776 | -81.05923 | 35050 ft | 512 kts | 91° |
| 2026-04-22 17:08 | 41.83879 | -80.96466 | 35051 ft | 511 kts | 91° |
| 2026-04-22 17:08 | 41.82975 | -80.87025 | 35061 ft | 511 kts | 91° |
| 2026-04-22 17:09 | 41.82065 | -80.77582 | 35044 ft | 511 kts | 91° |
| 2026-04-22 17:09 | 41.81147 | -80.68150 | 35047 ft | 510 kts | 91° |
| 2026-04-22 17:10 | 41.80223 | -80.58727 | 35034 ft | 510 kts | 91° |
| 2026-04-22 17:10 | 41.79286 | -80.49303 | 35055 ft | 510 kts | 91° |
| 2026-04-22 17:11 | 41.78339 | -80.39879 | 35044 ft | 510 kts | 91° |
| 2026-04-22 17:11 | 41.77385 | -80.30460 | 35040 ft | 510 kts | 91° |
| 2026-04-22 17:12 | 41.76425 | -80.21040 | 35044 ft | 510 kts | 91° |
| 2026-04-22 17:12 | 41.75464 | -80.11696 | 35040 ft | 510 kts | 91° |
| 2026-04-22 17:13 | 41.74490 | -80.02303 | 35040 ft | 509 kts | 91° |
| 2026-04-22 17:13 | 41.73509 | -79.92913 | 35038 ft | 509 kts | 91° |
| 2026-04-22 17:14 | 41.72519 | -79.83515 | 35025 ft | 509 kts | 92° |
| 2026-04-22 17:14 | 41.71523 | -79.74129 | 35041 ft | 509 kts | 92° |
| 2026-04-22 17:15 | 41.70519 | -79.64747 | 35024 ft | 510 kts | 92° |
| 2026-04-22 17:15 | 41.69506 | -79.55353 | 35015 ft | 510 kts | 92° |
| 2026-04-22 17:16 | 41.68485 | -79.45970 | 35013 ft | 510 kts | 92° |
| 2026-04-22 17:16 | 41.67458 | -79.36588 | 35026 ft | 510 kts | 92° |
| 2026-04-22 17:17 | 41.66422 | -79.27196 | 35008 ft | 510 kts | 92° |
| 2026-04-22 17:17 | 41.65380 | -79.17827 | 35014 ft | 509 kts | 92° |
| 2026-04-22 17:18 | 41.64333 | -79.08471 | 35010 ft | 509 kts | 92° |
| 2026-04-22 17:18 | 41.63283 | -78.99124 | 35020 ft | 509 kts | 93° |
| 2026-04-22 17:19 | 41.61162 | -78.80432 | 35005 ft | 509 kts | 93° |
| 2026-04-22 17:20 | 41.59008 | -78.61748 | 35024 ft | 509 kts | 94° |
| 2026-04-22 17:21 | 41.57378 | -78.47798 | 35017 ft | 509 kts | 94° |
| 2026-04-22 17:22 | 41.55734 | -78.33895 | 34826 ft | 495 kts | 94° |
| 2026-04-22 17:22 | 41.54662 | -78.24912 | 34337 ft | 486 kts | 93° |
| 2026-04-22 17:23 | 41.54131 | -78.20461 | 33983 ft | 485 kts | 93° |
| 2026-04-22 17:23 | 41.53069 | -78.11607 | 33246 ft | 481 kts | 94° |
| 2026-04-22 17:23 | 41.52541 | -78.07225 | 33053 ft | 475 kts | 94° |
| 2026-04-22 17:24 | 41.51490 | -77.98566 | 33023 ft | 474 kts | 94° |
| 2026-04-22 17:24 | 41.50344 | -77.89819 | 33025 ft | 483 kts | 96° |
| 2026-04-22 17:25 | 41.49073 | -77.81024 | 33014 ft | 482 kts | 96° |
| 2026-04-22 17:25 | 41.47799 | -77.72261 | 32997 ft | 481 kts | 96° |
| 2026-04-22 17:26 | 41.46541 | -77.63519 | 32997 ft | 480 kts | 96° |
| 2026-04-22 17:26 | 41.45290 | -77.54791 | 33010 ft | 479 kts | 96° |
| 2026-04-22 17:27 | 41.44029 | -77.46083 | 33010 ft | 479 kts | 96° |
| 2026-04-22 17:27 | 41.43391 | -77.41721 | 32716 ft | 482 kts | 96° |
| 2026-04-22 17:27 | 41.42753 | -77.37344 | 32253 ft | 480 kts | 96° |
| 2026-04-22 17:28 | 41.42119 | -77.33002 | 31822 ft | 475 kts | 97° |
| 2026-04-22 17:28 | 41.41488 | -77.28693 | 31396 ft | 471 kts | 97° |
| 2026-04-22 17:28 | 41.40863 | -77.24436 | 30976 ft | 466 kts | 97° |
| 2026-04-22 17:28 | 41.40240 | -77.20216 | 30581 ft | 463 kts | 97° |
| 2026-04-22 17:29 | 41.39622 | -77.16030 | 30170 ft | 459 kts | 97° |
| 2026-04-22 17:29 | 41.39006 | -77.11875 | 29700 ft | 456 kts | 98° |
| 2026-04-22 17:29 | 41.38395 | -77.07756 | 29245 ft | 452 kts | 98° |
| 2026-04-22 17:29 | 41.37788 | -77.03677 | 28845 ft | 447 kts | 98° |
| 2026-04-22 17:30 | 41.37185 | -76.99637 | 28403 ft | 443 kts | 98° |
| 2026-04-22 17:30 | 41.36586 | -76.95632 | 27998 ft | 439 kts | 98° |
| 2026-04-22 17:30 | 41.35991 | -76.91663 | 27579 ft | 435 kts | 98° |
| 2026-04-22 17:30 | 41.35400 | -76.87726 | 27169 ft | 432 kts | 98° |
| 2026-04-22 17:31 | 41.34813 | -76.83821 | 26793 ft | 429 kts | 98° |
| 2026-04-22 17:31 | 41.34228 | -76.79944 | 26381 ft | 426 kts | 98° |
| 2026-04-22 17:31 | 41.33601 | -76.76103 | 25985 ft | 424 kts | 103° |
| 2026-04-22 17:31 | 41.32721 | -76.72364 | 25595 ft | 423 kts | 107° |
| 2026-04-22 17:32 | 41.31709 | -76.68705 | 25197 ft | 420 kts | 109° |
| 2026-04-22 17:32 | 41.30667 | -76.65084 | 24805 ft | 418 kts | 109° |
| 2026-04-22 17:32 | 41.29639 | -76.61472 | 24418 ft | 416 kts | 109° |
| 2026-04-22 17:32 | 41.28639 | -76.57880 | 24030 ft | 414 kts | 108° |
| 2026-04-22 17:33 | 41.27987 | -76.55498 | 23768 ft | 413 kts | 108° |
| 2026-04-22 17:33 | 41.26691 | -76.50713 | 23197 ft | 411 kts | 108° |
| 2026-04-22 17:33 | 41.25731 | -76.47149 | 22779 ft | 408 kts | 108° |
| 2026-04-22 17:33 | 41.24778 | -76.43606 | 22365 ft | 406 kts | 108° |
| 2026-04-22 17:34 | 41.23831 | -76.40088 | 21970 ft | 403 kts | 108° |
| 2026-04-22 17:34 | 41.22888 | -76.36593 | 21568 ft | 401 kts | 108° |
| 2026-04-22 17:34 | 41.21950 | -76.33120 | 21195 ft | 398 kts | 108° |
| 2026-04-22 17:34 | 41.21014 | -76.29662 | 20819 ft | 396 kts | 108° |
| 2026-04-22 17:35 | 41.20084 | -76.26231 | 20450 ft | 394 kts | 108° |
| 2026-04-22 17:35 | 41.19158 | -76.22820 | 20068 ft | 392 kts | 108° |
| 2026-04-22 17:35 | 41.18234 | -76.19425 | 19701 ft | 390 kts | 108° |
| 2026-04-22 17:35 | 41.17313 | -76.16046 | 19322 ft | 389 kts | 108° |
| 2026-04-22 17:36 | 41.16396 | -76.12678 | 18956 ft | 388 kts | 108° |
| 2026-04-22 17:36 | 41.15478 | -76.09316 | 18554 ft | 387 kts | 108° |
| 2026-04-22 17:36 | 41.14558 | -76.05961 | 18137 ft | 387 kts | 108° |
| 2026-04-22 17:36 | 41.13635 | -76.02595 | 17658 ft | 388 kts | 108° |
| 2026-04-22 17:37 | 41.12715 | -75.99240 | 17275 ft | 386 kts | 108° |
| 2026-04-22 17:37 | 41.11800 | -75.95912 | 16919 ft | 382 kts | 108° |
| 2026-04-22 17:37 | 41.10891 | -75.92611 | 16554 ft | 379 kts | 108° |
| 2026-04-22 17:37 | 41.10002 | -75.89386 | 16233 ft | 376 kts | 108° |
| 2026-04-22 17:38 | 41.09108 | -75.86147 | 15894 ft | 373 kts | 109° |
| 2026-04-22 17:38 | 41.08221 | -75.82934 | 15560 ft | 370 kts | 109° |
| 2026-04-22 17:38 | 41.07328 | -75.79703 | 15220 ft | 367 kts | 109° |
| 2026-04-22 17:38 | 41.06453 | -75.76542 | 14910 ft | 364 kts | 109° |
| 2026-04-22 17:39 | 41.05584 | -75.73405 | 14594 ft | 361 kts | 109° |
| 2026-04-22 17:39 | 41.04721 | -75.70294 | 14265 ft | 359 kts | 109° |
| 2026-04-22 17:39 | 41.03019 | -75.64166 | 13606 ft | 355 kts | 109° |
| 2026-04-22 17:40 | 41.02168 | -75.61110 | 13273 ft | 352 kts | 109° |
| 2026-04-22 17:40 | 41.01324 | -75.58086 | 12949 ft | 349 kts | 109° |
| 2026-04-22 17:40 | 41.00486 | -75.55086 | 12678 ft | 346 kts | 109° |
| 2026-04-22 17:40 | 40.99655 | -75.52112 | 12410 ft | 343 kts | 109° |
| 2026-04-22 17:41 | 40.98825 | -75.49146 | 12142 ft | 345 kts | 109° |
| 2026-04-22 17:41 | 40.97986 | -75.46154 | 11863 ft | 347 kts | 109° |
| 2026-04-22 17:41 | 40.97149 | -75.43164 | 11613 ft | 347 kts | 109° |
| 2026-04-22 17:41 | 40.96311 | -75.40176 | 11329 ft | 346 kts | 110° |
| 2026-04-22 17:42 | 40.95473 | -75.37194 | 11060 ft | 346 kts | 110° |
| 2026-04-22 17:42 | 40.94637 | -75.34219 | 10797 ft | 344 kts | 110° |
| 2026-04-22 17:42 | 40.94086 | -75.32261 | 10638 ft | 341 kts | 110° |
| 2026-04-22 17:42 | 40.92987 | -75.28362 | 10280 ft | 336 kts | 110° |
| 2026-04-22 17:43 | 40.92174 | -75.25485 | 10010 ft | 333 kts | 110° |
| 2026-04-22 17:43 | 40.91640 | -75.23592 | 9918 ft | 329 kts | 110° |
| 2026-04-22 17:43 | 40.90581 | -75.19841 | 9632 ft | 322 kts | 110° |
| 2026-04-22 17:43 | 40.89810 | -75.17113 | 9394 ft | 310 kts | 110° |
| 2026-04-22 17:44 | 40.89067 | -75.14493 | 9034 ft | 300 kts | 110° |
| 2026-04-22 17:44 | 40.88347 | -75.11955 | 8757 ft | 291 kts | 110° |
| 2026-04-22 17:44 | 40.87637 | -75.09450 | 8543 ft | 294 kts | 110° |
| 2026-04-22 17:44 | 40.87163 | -75.07769 | 8400 ft | 296 kts | 110° |
| 2026-04-22 17:45 | 40.86443 | -75.05220 | 8160 ft | 296 kts | 110° |
| 2026-04-22 17:45 | 40.85728 | -75.02687 | 7908 ft | 292 kts | 111° |
| 2026-04-22 17:45 | 40.85022 | -75.00185 | 7661 ft | 288 kts | 111° |
| 2026-04-22 17:45 | 40.84327 | -74.97728 | 7455 ft | 283 kts | 111° |
| 2026-04-22 17:46 | 40.83640 | -74.95303 | 7222 ft | 281 kts | 111° |
| 2026-04-22 17:46 | 40.82959 | -74.92904 | 7090 ft | 278 kts | 110° |
| 2026-04-22 17:46 | 40.82280 | -74.90496 | 7039 ft | 282 kts | 110° |
| 2026-04-22 17:46 | 40.81946 | -74.87963 | 6889 ft | 285 kts | 82° |
| 2026-04-22 17:47 | 40.82362 | -74.85416 | 6740 ft | 284 kts | 73° |
| 2026-04-22 17:47 | 40.82864 | -74.82886 | 6584 ft | 285 kts | 73° |
| 2026-04-22 17:47 | 40.83342 | -74.80356 | 6480 ft | 283 kts | 74° |
| 2026-04-22 17:47 | 40.83800 | -74.77834 | 6369 ft | 282 kts | 75° |
| 2026-04-22 17:48 | 40.84245 | -74.75322 | 6236 ft | 279 kts | 75° |
| 2026-04-22 17:48 | 40.84674 | -74.72852 | 6091 ft | 273 kts | 75° |
| 2026-04-22 17:48 | 40.85086 | -74.70430 | 5997 ft | 269 kts | 75° |
| 2026-04-22 17:48 | 40.85493 | -74.68009 | 5904 ft | 272 kts | 76° |
| 2026-04-22 17:49 | 40.85904 | -74.65551 | 5822 ft | 276 kts | 76° |
| 2026-04-22 17:49 | 40.86316 | -74.63071 | 5720 ft | 276 kts | 76° |
| 2026-04-22 17:49 | 40.86724 | -74.60607 | 5607 ft | 274 kts | 76° |
| 2026-04-22 17:49 | 40.87128 | -74.58156 | 5490 ft | 272 kts | 76° |
| 2026-04-22 17:50 | 40.87528 | -74.55720 | 5391 ft | 271 kts | 76° |
| 2026-04-22 17:50 | 40.87928 | -74.53294 | 5275 ft | 269 kts | 76° |
| 2026-04-22 17:50 | 40.88323 | -74.50882 | 5182 ft | 268 kts | 76° |
| 2026-04-22 17:50 | 40.88716 | -74.48485 | 5061 ft | 266 kts | 76° |
| 2026-04-22 17:51 | 40.89106 | -74.46101 | 4955 ft | 265 kts | 76° |
| 2026-04-22 17:51 | 40.89493 | -74.43730 | 4846 ft | 264 kts | 76° |
| 2026-04-22 17:51 | 40.89879 | -74.41360 | 4746 ft | 263 kts | 76° |
| 2026-04-22 17:51 | 40.90265 | -74.38989 | 4679 ft | 265 kts | 76° |
| 2026-04-22 17:52 | 40.90654 | -74.36602 | 4569 ft | 267 kts | 77° |
| 2026-04-22 17:52 | 40.91044 | -74.34194 | 4469 ft | 269 kts | 77° |
| 2026-04-22 17:52 | 40.91437 | -74.31763 | 4356 ft | 271 kts | 78° |
| 2026-04-22 17:52 | 40.91829 | -74.29344 | 4229 ft | 267 kts | 78° |
| 2026-04-22 17:53 | 40.92211 | -74.26981 | 4131 ft | 259 kts | 77° |
| 2026-04-22 17:53 | 40.92588 | -74.24645 | 4042 ft | 261 kts | 78° |
| 2026-04-22 17:53 | 40.92970 | -74.22274 | 3954 ft | 265 kts | 78° |
| 2026-04-22 17:53 | 40.93356 | -74.19886 | 3874 ft | 266 kts | 78° |
| 2026-04-22 17:54 | 40.93666 | -74.17489 | 3710 ft | 261 kts | 92° |
| 2026-04-22 17:54 | 40.93221 | -74.15239 | 3610 ft | 252 kts | 124° |
| 2026-04-22 17:54 | 40.92062 | -74.13572 | 3550 ft | 242 kts | 146° |
| 2026-04-22 17:54 | 40.90661 | -74.12413 | 3449 ft | 234 kts | 153° |
| 2026-04-22 17:55 | 40.89265 | -74.11392 | 3375 ft | 224 kts | 154° |
| 2026-04-22 17:55 | 40.87937 | -74.10423 | 3269 ft | 213 kts | 153° |
| 2026-04-22 17:55 | 40.86706 | -74.09513 | 3194 ft | 197 kts | 154° |
| 2026-04-22 17:55 | 40.85521 | -74.08637 | 3098 ft | 193 kts | 155° |
| 2026-04-22 17:56 | 40.84331 | -74.07871 | 3010 ft | 187 kts | 170° |
| 2026-04-22 17:56 | 40.83053 | -74.08015 | 2810 ft | 182 kts | 200° |
| 2026-04-22 17:56 | 40.81879 | -74.08584 | 2611 ft | 181 kts | 199° |
| 2026-04-22 17:56 | 40.80725 | -74.09180 | 2478 ft | 180 kts | 203° |
| 2026-04-22 17:57 | 40.79603 | -74.09868 | 2236 ft | 177 kts | 203° |
| 2026-04-22 17:57 | 40.78481 | -74.10585 | 1983 ft | 175 kts | 202° |
| 2026-04-22 17:57 | 40.77408 | -74.11270 | 1736 ft | 173 kts | 203° |
| 2026-04-22 17:57 | 40.76309 | -74.11974 | 1486 ft | 173 kts | 202° |
| 2026-04-22 17:58 | 40.75257 | -74.12645 | 1265 ft | 170 kts | 203° |
| 2026-04-22 17:58 | 40.74201 | -74.13320 | 1011 ft | 168 kts | 203° |
| 2026-04-22 17:58 | 40.73172 | -74.13983 | 735 ft | 163 kts | 202° |
| 2026-04-22 17:58 | 40.72193 | -74.14616 | 525 ft | 155 kts | 202° |
| 2026-04-22 17:59 | 40.71236 | -74.15237 | 357 ft | 151 kts | 201° |
| 2026-04-22 17:59 | 40.70294 | -74.15823 | 141 ft | 149 kts | 202° |
| 2026-04-22 17:59 | 40.69376 | -74.16398 | 31 ft | 137 kts | 202° |
| 2026-04-22 17:59 | 40.68686 | -74.16835 | 31 ft | 82 kts | 206° |
| 2026-04-22 18:00 | 40.68443 | -74.16992 | 27 ft | 33 kts | 206° |
| 2026-04-22 18:00 | 40.68255 | -74.17192 | 26 ft | 12 kts | 236° |
| 2026-04-22 18:00 | 40.68207 | -74.17284 | 27 ft | 12 kts | 236° |
| 2026-04-22 18:00 | 40.68166 | -74.17363 | 26 ft | 5 kts | 236° |
| 2026-04-22 18:01 | 40.68163 | -74.17370 | 32 ft | 0 kts | 236° |
| 2026-04-22 18:01 | 40.68160 | -74.17375 | 31 ft | 1 kts | 236° |
| 2026-04-22 18:01 | 40.68156 | -74.17383 | 29 ft | 0 kts | 236° |
| 2026-04-22 18:01 | 40.68155 | -74.17386 | 31 ft | 1 kts | 236° |
| 2026-04-22 18:02 | 40.68145 | -74.17407 | 32 ft | 7 kts | 245° |
| 2026-04-22 18:02 | 40.68158 | -74.17481 | 28 ft | 11 kts | 293° |
| 2026-04-22 18:02 | 40.68204 | -74.17609 | 26 ft | 17 kts | 296° |
| 2026-04-22 18:02 | 40.68300 | -74.17629 | 27 ft | 17 kts | 30° |
| 2026-04-22 18:03 | 40.68403 | -74.17557 | 27 ft | 17 kts | 26° |
| 2026-04-22 18:03 | 40.68508 | -74.17489 | 28 ft | 17 kts | 26° |
| 2026-04-22 18:03 | 40.68613 | -74.17422 | 28 ft | 17 kts | 25° |
| 2026-04-22 18:03 | 40.68760 | -74.17329 | 28 ft | 31 kts | 25° |
| 2026-04-22 18:04 | 40.68938 | -74.17215 | 27 ft | 28 kts | 26° |
| 2026-04-22 18:04 | 40.69114 | -74.17104 | 26 ft | 28 kts | 26° |
| 2026-04-22 18:04 | 40.69291 | -74.16994 | 27 ft | 28 kts | 22° |
| 2026-04-22 18:04 | 40.69483 | -74.16977 | 27 ft | 28 kts | 351° |
| 2026-04-22 18:05 | 40.69635 | -74.17022 | 27 ft | 14 kts | 340° |
| 2026-04-22 18:05 | 40.69711 | -74.17067 | 27 ft | 10 kts | 330° |
| 2026-04-22 18:05 | 40.69766 | -74.17112 | 27 ft | 9 kts | 322° |
| 2026-04-22 18:05 | 40.69814 | -74.17165 | 27 ft | 9 kts | 318° |
| 2026-04-22 18:06 | 40.69858 | -74.17220 | 27 ft | 9 kts | 315° |
| 2026-04-22 18:06 | 40.69898 | -74.17282 | 27 ft | 9 kts | 306° |
| 2026-04-22 18:06 | 40.69933 | -74.17349 | 27 ft | 9 kts | 297° |
| 2026-04-22 18:06 | 40.69960 | -74.17441 | 27 ft | 14 kts | 284° |
| 2026-04-22 18:07 | 40.69974 | -74.17593 | 27 ft | 19 kts | 274° |
| 2026-04-22 18:07 | 40.69984 | -74.17763 | 27 ft | 19 kts | 275° |
| 2026-04-22 18:07 | 40.69993 | -74.17886 | 27 ft | 9 kts | 276° |
| 2026-04-22 18:07 | 40.69990 | -74.17943 | 27 ft | 5 kts | 237° |
| 2026-04-22 18:08 | 40.69966 | -74.17951 | 27 ft | 2 kts | 181° |
| 2026-04-22 18:08 | 40.69949 | -74.17951 | 27 ft | 3 kts | 182° |
| 2026-04-22 18:08 | 40.69932 | -74.17953 | 27 ft | 1 kts | 184° |
| 2026-04-22 18:08 | 40.69931 | -74.17953 | 27 ft | 0 kts | 184° |
| 2026-04-22 18:09 | 40.69927 | -74.17954 | 27 ft | 1 kts | 184° |
| 2026-04-22 18:09 | 40.69926 | -74.17954 | 27 ft | 0 kts | 184° |
| 2026-04-22 18:09 | 40.69923 | -74.17954 | 27 ft | 0 kts | 184° |